Time;durP1;ratioP1;P1;durP2;ratioP2;P2;SDS_P1;SDS_P2;PMS_P1;PMS_P2;Temp;Humidity;BMP_temperature;BMP_pressure;BME280_temperature;BME280_humidity;BME280_pressure;Samples;Min_cycle;Max_cycle;Signal;HPM_P1;HPM_P2
2022/11/27 00:00:21;;;;;;;;;;;;;;;27.31;24.26;101863.97;4976228;28;1114;-20
2022/11/27 00:02:47;;;;;;;;;;;;;;;27.11;24.59;101864.16;4958664;28;1217;-20
2022/11/27 00:05:12;;;;;;;;;;;;;;;27.67;24.68;101863.88;4976439;28;1153;-20
2022/11/27 00:07:37;;;;;;;;;;;;;;;27.96;23.98;101859.16;4959412;28;1174;-21
2022/11/27 00:10:03;;;;;;;;;;;;;;;27.55;23.71;101857.88;4975229;28;1196;-21
2022/11/27 00:12:28;;;;;;;;;;;;;;;27.12;24.83;101861.31;4976960;28;1210;-21
2022/11/27 00:14:53;;;;;;;;;;;;;;;27.25;25.16;101869.00;4958529;28;1895;-21
2022/11/27 00:17:18;;;;;;;;;;;;;;;27.80;24.24;101862.63;4975896;28;1078;-21
2022/11/27 00:19:44;;;;;;;;;;;;;;;27.87;24.46;101863.69;4975792;28;1304;-21
2022/11/27 00:22:09;;;;;;;;;;;;;;;27.22;24.50;101863.91;4975701;28;821;-21
2022/11/27 00:24:34;;;;;;;;;;;;;;;27.18;25.00;101861.66;4975531;28;1087;-20
2022/11/27 00:27:00;;;;;;;;;;;;;;;27.68;24.32;101868.31;4975356;28;1130;-21
2022/11/27 00:29:27;;;;;;;;;;;;;;;27.68;24.32;101871.00;4976111;28;1098;-21
2022/11/27 00:31:53;;;;;;;;;;;;;;;27.67;24.34;101868.44;4975377;28;1240;-21
2022/11/27 00:34:18;;;;;;;;;;;;;;;26.63;24.34;101864.34;4975237;28;1914;-21
2022/11/27 00:36:44;;;;;;;;;;;;;;;26.39;25.79;101872.00;4975633;28;1133;-21
2022/11/27 00:39:09;;;;;;;;;;;;;;;27.18;24.72;101873.31;4976248;28;1229;-21
2022/11/27 00:41:34;;;;;;;;;;;;;;;27.43;24.52;101880.75;4974849;28;1197;-21
2022/11/27 00:43:59;;;;;;;;;;;;;;;26.72;24.55;101866.16;4975258;28;1287;-20
2022/11/27 00:46:26;;;;;;;;;;;;;;;26.17;25.22;101870.56;4975062;28;1158;-21
2022/11/27 00:48:51;;;;;;;;;;;;;;;26.62;25.55;101873.44;4975361;28;1178;-20
2022/11/27 00:51:18;;;;;;;;;;;;;;;27.16;24.62;101872.63;4975183;28;1228;-20
2022/11/27 00:53:43;;;;;;;;;;;;;;;26.74;24.72;101880.31;4974770;28;1958;-20
2022/11/27 00:56:13;;;;;;;;;;;;;;;26.14;25.51;101876.25;4975066;28;1158;-21
2022/11/27 00:58:39;;;;;;;;;;;;;;;26.48;25.53;101874.81;4975163;28;1236;-21
2022/11/27 01:01:04;;;;;;;;;;;;;;;27.06;24.79;101880.81;4975144;28;1157;-21
2022/11/27 01:03:30;;;;;;;;;;;;;;;27.21;24.65;101872.19;4974705;28;1197;-20
2022/11/27 01:05:55;;;;;;;;;;;;;;;26.27;24.93;101874.06;4975432;28;1185;-21
2022/11/27 01:08:20;;;;;;;;;;;;;;;26.01;25.98;101872.03;4975761;28;1245;-21
2022/11/27 01:10:49;;;;;;;;;;;;;;;26.94;24.82;101871.22;4974760;28;1188;-20
2022/11/27 01:13:14;;;;;;;;;;;;;;;27.11;24.87;101872.28;4974043;28;1958;-20
2022/11/27 01:15:40;;;;;;;;;;;;;;;26.36;24.69;101874.19;4977664;28;1173;-20
2022/11/27 01:18:05;;;;;;;;;;;;;;;25.96;25.49;101865.41;4978377;28;1118;-20
2022/11/27 01:20:30;;;;;;;;;;;;;;;26.71;25.42;101867.13;4978408;28;1202;-20
2022/11/27 01:22:55;;;;;;;;;;;;;;;27.06;24.85;101878.13;4936345;28;1198927;-20
2022/11/27 01:25:21;;;;;;;;;;;;;;;26.43;24.61;101877.09;4979347;28;1209;-20
2022/11/27 01:27:46;;;;;;;;;;;;;;;25.94;25.16;101876.34;4979562;28;1173;-21
2022/11/27 01:30:12;;;;;;;;;;;;;;;26.71;25.22;101874.41;4979438;28;1546;-20
2022/11/27 01:32:37;;;;;;;;;;;;;;;27.05;24.55;101871.03;4979660;28;1257;-20
2022/11/27 01:35:03;;;;;;;;;;;;;;;26.61;24.40;101872.59;4979378;28;1906;-20
2022/11/27 01:37:28;;;;;;;;;;;;;;;26.00;25.27;101873.03;4979556;28;1126;-21
2022/11/27 01:39:53;;;;;;;;;;;;;;;26.39;25.75;101873.88;4979098;28;1202;-20
2022/11/27 01:42:18;;;;;;;;;;;;;;;26.91;24.95;101866.97;4978353;28;1670;-20
2022/11/27 01:44:51;;;;;;;;;;;;;;;26.46;24.69;101869.56;4978279;28;1323;-20
2022/11/27 01:47:27;;;;;;;;;;;;;;;25.95;25.45;101867.22;4971134;28;1185;-20
2022/11/27 01:49:52;;;;;;;;;;;;;;;26.63;25.56;101864.34;4962248;28;1122;-20
2022/11/27 01:52:27;;;;;;;;;;;;;;;27.04;24.83;101866.66;4979624;28;1469;-20
2022/11/27 01:54:52;;;;;;;;;;;;;;;26.62;24.31;101868.91;4960706;28;1968;-20
2022/11/27 01:57:24;;;;;;;;;;;;;;;26.06;25.16;101868.06;4978955;28;1145;-20
2022/11/27 01:59:50;;;;;;;;;;;;;;;26.39;25.39;101863.91;4978956;28;1165;-21
2022/11/27 02:02:15;;;;;;;;;;;;;;;26.50;24.69;101854.78;4961825;28;1130;-20
2022/11/27 02:04:40;;;;;;;;;;;;;;;26.31;25.33;101865.66;4978045;28;1184;-20
2022/11/27 02:07:06;;;;;;;;;;;;;;;26.93;24.77;101869.53;4978878;28;1217;-20
2022/11/27 02:09:31;;;;;;;;;;;;;;;27.42;24.38;101871.84;4978934;28;1221;-21
2022/11/27 02:12:23;;;;;;;;;;;;;;;27.59;24.19;101878.16;4961702;28;900;-20
2022/11/27 02:14:49;;;;;;;;;;;;;;;27.62;23.72;101877.88;4961499;28;1898;-20
2022/11/27 02:17:17;;;;;;;;;;;;;;;26.81;24.46;101880.56;4978908;28;1134;-20
2022/11/27 02:19:48;;;;;;;;;;;;;;;27.12;24.73;101874.81;4978603;28;1228;-20
2022/11/27 02:22:18;;;;;;;;;;;;;;;27.73;24.10;101876.78;4978809;28;1232;-20
2022/11/27 02:25:02;;;;;;;;;;;;;;;27.58;23.84;101887.31;4960009;28;1230;-20
2022/11/27 02:27:31;;;;;;;;;;;;;;;26.85;24.34;101884.66;4977892;28;1201;-20
2022/11/27 02:29:56;;;;;;;;;;;;;;;27.53;24.10;101891.50;4978588;28;1185;-21
2022/11/27 02:32:26;;;;;;;;;;;;;;;27.88;23.79;101887.00;4961184;28;1209;-21
2022/11/27 02:35:03;;;;;;;;;;;;;;;27.35;24.07;101887.81;4977093;28;1911;-20
2022/11/27 02:37:34;;;;;;;;;;;;;;;26.90;24.31;101881.50;4961479;28;1103;-20
2022/11/27 02:40:10;;;;;;;;;;;;;;;27.76;24.10;101878.31;4978531;28;1142;-20
2022/11/27 02:42:59;;;;;;;;;;;;;;;28.06;23.37;101877.97;4960751;28;1054;-21
2022/11/27 02:45:29;;;;;;;;;;;;;;;27.19;23.95;101875.03;4966941;28;1144;-21
2022/11/27 02:47:54;;;;;;;;;;;;;;;27.10;24.71;101879.50;4960538;28;1186;-21
2022/11/27 02:50:20;;;;;;;;;;;;;;;27.85;23.72;101871.97;4960707;28;1245;-21
2022/11/27 02:52:45;;;;;;;;;;;;;;;28.02;23.50;101877.44;4961110;28;1155;-21
2022/11/27 02:55:11;;;;;;;;;;;;;;;27.49;23.61;101864.78;4959777;28;1965;-20
2022/11/27 02:57:37;;;;;;;;;;;;;;;26.98;24.50;101878.88;4960337;28;1138;-20
2022/11/27 03:00:03;;;;;;;;;;;;;;;27.69;24.10;101870.00;4960661;28;1162;-21
2022/11/27 03:02:29;;;;;;;;;;;;;;;28.01;23.50;101874.91;4961084;28;1122;-20
2022/11/27 03:04:55;;;;;;;;;;;;;;;27.61;23.60;101880.75;4977274;28;1233;-20
2022/11/27 03:07:22;;;;;;;;;;;;;;;26.95;24.55;101872.91;4960372;28;1174;-21
2022/11/27 03:09:47;;;;;;;;;;;;;;;27.57;24.16;101872.09;4977791;28;1288;-21
2022/11/27 03:12:13;;;;;;;;;;;;;;;27.93;23.81;101879.25;4960143;28;1166;-21
2022/11/27 03:14:38;;;;;;;;;;;;;;;28.03;23.83;101868.31;4959909;28;1962;-21
2022/11/27 03:17:03;;;;;;;;;;;;;;;27.24;24.50;101869.16;4959492;28;1194;-21
2022/11/27 03:19:28;;;;;;;;;;;;;;;27.03;25.05;101878.44;4977857;28;1213;-20
2022/11/27 03:21:57;;;;;;;;;;;;;;;27.86;24.00;101873.63;4978107;28;1161;-21
2022/11/27 03:24:23;;;;;;;;;;;;;;;28.07;23.87;101879.66;4976609;28;1098;-21
2022/11/27 03:26:48;;;;;;;;;;;;;;;27.46;23.88;101884.00;4959475;28;1205;-21
2022/11/27 03:29:14;;;;;;;;;;;;;;;27.09;24.08;101877.78;4960212;28;1201;-21
2022/11/27 03:31:39;;;;;;;;;;;;;;;27.85;24.10;101869.25;4960320;28;1177;-21
2022/11/27 03:34:04;;;;;;;;;;;;;;;28.11;23.56;101862.94;4959745;28;1918;-21
2022/11/27 03:36:30;;;;;;;;;;;;;;;27.88;23.64;101859.97;4976934;28;903;-20
2022/11/27 03:38:55;;;;;;;;;;;;;;;27.29;23.93;101860.59;4976847;28;1142;-20
2022/11/27 03:41:26;;;;;;;;;;;;;;;27.63;24.24;101860.66;4977433;28;1174;-20
2022/11/27 03:43:55;;;;;;;;;;;;;;;28.15;23.46;101866.16;4977363;28;1213;-21
2022/11/27 03:46:27;;;;;;;;;;;;;;;28.22;23.37;101855.53;4976936;28;1142;-20
2022/11/27 03:49:01;;;;;;;;;;;;;;;27.45;23.58;101862.53;4959653;28;869;-20
2022/11/27 03:51:45;;;;;;;;;;;;;;;27.43;24.29;101859.16;4959840;28;1166;-20
2022/11/27 03:54:34;;;;;;;;;;;;;;;28.08;23.61;101854.28;4976968;28;1910;-29
2022/11/27 03:57:01;;;;;;;;;;;;;;;28.21;23.22;101859.28;4960007;28;1146;-20
2022/11/27 03:59:30;;;;;;;;;;;;;;;27.45;23.44;101860.69;4959214;28;1249;-21
2022/11/27 04:01:55;;;;;;;;;;;;;;;27.02;24.26;101860.53;4966401;28;1015;-20
2022/11/27 04:04:21;;;;;;;;;;;;;;;26.78;21.67;101859.25;4983959;28;1224;-20
2022/11/27 04:06:46;;;;;;;;;;;;;;;26.40;20.19;101854.84;4977280;28;1256;-20
2022/11/27 04:09:11;;;;;;;;;;;;;;;25.99;20.80;101857.84;4975766;28;1107;-20
2022/11/27 04:11:36;;;;;;;;;;;;;;;25.90;21.21;101861.44;4976449;28;1386;-20
2022/11/27 04:14:02;;;;;;;;;;;;;;;25.58;20.39;101858.09;4976084;28;1964;-20
2022/11/27 04:16:27;;;;;;;;;;;;;;;24.74;20.30;101861.22;4976647;28;1122;-20
2022/11/27 04:18:52;;;;;;;;;;;;;;;24.62;21.00;101865.03;4976054;28;1478;-21
2022/11/27 04:21:18;;;;;;;;;;;;;;;26.37;20.62;101865.94;4976590;28;1131;-20
2022/11/27 04:23:43;;;;;;;;;;;;;;;25.42;19.28;101864.91;4968845;28;2220;-20
2022/11/27 04:26:08;;;;;;;;;;;;;;;25.60;20.06;101860.63;4976917;28;1118;-20
2022/11/27 04:28:34;;;;;;;;;;;;;;;26.10;20.29;101864.91;4976001;28;1177;-20
2022/11/27 04:30:59;;;;;;;;;;;;;;;26.34;19.36;101860.81;4976366;28;1180;-20
2022/11/27 04:33:24;;;;;;;;;;;;;;;25.47;18.44;101860.94;4975938;28;1968;-20
2022/11/27 04:35:50;;;;;;;;;;;;;;;25.35;19.27;101863.81;4976418;28;1117;-20
2022/11/27 04:38:15;;;;;;;;;;;;;;;25.36;19.30;101843.94;4976718;28;1134;-20
2022/11/27 04:40:40;;;;;;;;;;;;;;;25.95;18.88;101867.22;4976318;28;1146;-20
2022/11/27 04:43:06;;;;;;;;;;;;;;;25.75;18.51;101861.91;4976729;28;1023;-20
2022/11/27 04:45:31;;;;;;;;;;;;;;;24.99;19.33;101861.69;4976490;28;1169;-20
2022/11/27 04:47:56;;;;;;;;;;;;;;;25.54;19.21;101865.59;4976703;28;1197;-20
2022/11/27 04:50:22;;;;;;;;;;;;;;;24.76;19.63;101867.31;4978768;28;1118;-20
2022/11/27 04:52:47;;;;;;;;;;;;;;;26.04;18.83;101866.34;4980498;28;1142;-19
2022/11/27 04:55:13;;;;;;;;;;;;;;;26.53;18.39;101880.59;4979670;28;1961;-19
2022/11/27 04:57:38;;;;;;;;;;;;;;;26.70;18.24;101872.69;4980356;28;1173;-19
2022/11/27 05:00:04;;;;;;;;;;;;;;;26.34;19.02;101876.19;4978499;28;1094;-20
2022/11/27 05:02:29;;;;;;;;;;;;;;;28.65;17.55;101885.28;4978585;28;1213;-20
2022/11/27 05:04:54;;;;;;;;;;;;;;;28.41;18.62;101878.78;4980343;28;1161;-20
2022/11/27 05:07:20;;;;;;;;;;;;;;;26.72;20.10;101894.97;4979923;28;1133;-20
2022/11/27 05:09:45;;;;;;;;;;;;;;;28.51;18.65;101889.47;4979580;28;1161;-20
2022/11/27 05:12:10;;;;;;;;;;;;;;;29.20;18.23;101880.31;4962498;28;1146;-20
2022/11/27 05:14:36;;;;;;;;;;;;;;;29.34;18.39;101880.63;4979553;28;1898;-20
2022/11/27 05:17:01;;;;;;;;;;;;;;;29.56;18.32;101875.53;4980013;28;1138;-21
2022/11/27 05:19:27;;;;;;;;;;;;;;;29.83;18.12;101881.56;4965964;28;1113;-21
2022/11/27 05:21:52;;;;;;;;;;;;;;;29.80;18.41;101882.78;4979749;28;1142;-21
2022/11/27 05:24:18;;;;;;;;;;;;;;;29.99;18.43;101882.53;4979086;28;1275;-21
2022/11/27 05:26:43;;;;;;;;;;;;;;;30.30;18.32;101882.59;4979882;28;1169;-20
2022/11/27 05:29:09;;;;;;;;;;;;;;;30.10;18.73;101884.88;4979450;28;1200;-20
2022/11/27 05:31:34;;;;;;;;;;;;;;;30.28;18.53;101894.69;4979006;28;1184;-20
2022/11/27 05:34:00;;;;;;;;;;;;;;;30.07;19.04;101890.66;4979366;28;1910;-20
2022/11/27 05:36:25;;;;;;;;;;;;;;;30.42;18.89;101888.50;4978415;28;1213;-20
2022/11/27 05:38:50;;;;;;;;;;;;;;;30.50;18.55;101895.72;4979346;28;1122;-20
2022/11/27 05:41:16;;;;;;;;;;;;;;;30.12;19.47;101904.53;4978629;28;1165;-20
2022/11/27 05:43:41;;;;;;;;;;;;;;;30.23;19.23;101907.94;4979045;28;1126;-20
2022/11/27 05:46:07;;;;;;;;;;;;;;;30.36;19.08;101907.34;4978801;28;1188;-20
2022/11/27 05:48:32;;;;;;;;;;;;;;;30.21;19.29;101909.97;4978798;28;1193;-21
2022/11/27 05:50:58;;;;;;;;;;;;;;;30.33;19.41;101903.13;4977739;28;1249;-20
2022/11/27 05:53:23;;;;;;;;;;;;;;;30.35;19.41;101905.66;4976586;28;2468;-20
2022/11/27 05:55:48;;;;;;;;;;;;;;;30.33;19.47;101905.00;4978588;28;1182;-20
2022/11/27 05:58:13;;;;;;;;;;;;;;;29.99;19.98;101891.53;4978665;28;1205;-20
2022/11/27 06:00:39;;;;;;;;;;;;;;;30.01;20.22;101897.63;4978030;28;1257;-21
2022/11/27 06:03:04;;;;;;;;;;;;;;;30.25;19.97;101890.44;4977952;28;1324;-20
2022/11/27 06:05:29;;;;;;;;;;;;;;;30.19;19.98;101899.25;4978090;28;1201;-20
2022/11/27 06:07:55;;;;;;;;;;;;;;;30.17;20.12;101895.88;4978466;28;1534;-20
2022/11/27 06:10:20;;;;;;;;;;;;;;;30.10;20.37;101897.59;4978054;28;1182;-20
2022/11/27 06:12:45;;;;;;;;;;;;;;;30.12;20.21;101896.41;4977095;28;1288;-20
2022/11/27 06:15:10;;;;;;;;;;;;;;;30.14;20.30;101896.22;4977657;28;1969;-20
2022/11/27 06:17:36;;;;;;;;;;;;;;;30.18;20.30;101898.41;4978201;28;1190;-20
2022/11/27 06:20:01;;;;;;;;;;;;;;;30.24;20.24;101896.91;4978576;28;1154;-20
2022/11/27 06:22:27;;;;;;;;;;;;;;;30.21;20.40;101907.25;4977923;28;2294;-20
2022/11/27 06:24:52;;;;;;;;;;;;;;;30.23;20.42;101906.03;4977804;28;1635;-20
2022/11/27 06:27:17;;;;;;;;;;;;;;;30.28;20.38;101908.25;4978174;28;1070;-20
2022/11/27 06:29:43;;;;;;;;;;;;;;;30.31;20.35;101910.59;4978323;28;1122;-20
2022/11/27 06:32:08;;;;;;;;;;;;;;;30.33;20.40;101908.53;4977998;28;1224;-20
2022/11/27 06:34:33;;;;;;;;;;;;;;;30.36;20.55;101908.22;4960521;28;1971;-21
2022/11/27 06:36:58;;;;;;;;;;;;;;;30.33;20.57;101899.56;4977829;28;1181;-20
2022/11/27 06:39:24;;;;;;;;;;;;;;;30.40;20.38;101897.81;4978275;28;1162;-20
2022/11/27 06:41:49;;;;;;;;;;;;;;;30.15;20.82;101898.75;4978028;28;1197;-20
2022/11/27 06:44:14;;;;;;;;;;;;;;;30.03;20.90;101902.91;4976854;28;1086;-20
2022/11/27 06:46:40;;;;;;;;;;;;;;;29.98;21.04;101897.97;4978199;28;1122;-20
2022/11/27 06:49:05;;;;;;;;;;;;;;;30.03;20.88;101901.00;4977860;28;1174;-21
2022/11/27 06:51:30;;;;;;;;;;;;;;;30.01;21.12;101907.63;4961031;28;1151;-20
2022/11/27 06:53:56;;;;;;;;;;;;;;;29.97;21.13;101906.28;4976823;28;2104;-20
2022/11/27 06:56:25;;;;;;;;;;;;;;;30.12;21.23;101912.69;4960642;28;1393;-20
2022/11/27 06:58:51;;;;;;;;;;;;;;;30.08;21.10;101913.22;4977576;28;1094;-20
2022/11/27 07:01:16;;;;;;;;;;;;;;;30.06;21.07;101908.78;4977788;28;1086;-21
2022/11/27 07:03:41;;;;;;;;;;;;;;;30.15;21.23;101915.03;4976623;28;1114;-20
2022/11/27 07:06:08;;;;;;;;;;;;;;;30.12;21.15;101918.09;4977715;28;1189;-20
2022/11/27 07:08:33;;;;;;;;;;;;;;;30.09;21.30;101917.59;4977928;28;1185;-20
2022/11/27 07:11:02;;;;;;;;;;;;;;;30.17;21.31;101915.72;4977992;28;1122;-20
2022/11/27 07:13:28;;;;;;;;;;;;;;;30.12;21.45;101920.81;4976229;28;1958;-20
2022/11/27 07:15:53;;;;;;;;;;;;;;;30.12;21.10;101920.81;4977016;28;1082;-20
2022/11/27 07:18:19;;;;;;;;;;;;;;;30.13;21.35;101919.78;4977345;28;1067;-20
2022/11/27 07:20:49;;;;;;;;;;;;;;;29.93;21.51;101922.06;4977632;28;1288;-20
2022/11/27 07:23:15;;;;;;;;;;;;;;;29.91;21.46;101919.50;4976962;28;2599;-20
2022/11/27 07:25:40;;;;;;;;;;;;;;;29.93;21.82;101922.06;4976623;28;1130;-20
2022/11/27 07:28:05;;;;;;;;;;;;;;;29.96;21.66;101916.31;4977352;28;1125;-20
2022/11/27 07:30:30;;;;;;;;;;;;;;;29.89;21.76;101921.59;4977246;28;1170;-20
2022/11/27 07:32:56;;;;;;;;;;;;;;;29.91;21.71;101914.09;4977334;28;1472;-20
2022/11/27 07:35:21;;;;;;;;;;;;;;;29.95;21.87;101922.72;4976224;28;1914;-20
2022/11/27 07:37:46;;;;;;;;;;;;;;;29.96;21.83;101916.31;4976877;28;1126;-21
2022/11/27 07:40:12;;;;;;;;;;;;;;;30.02;21.86;101915.59;4977150;28;1183;-21
2022/11/27 07:42:37;;;;;;;;;;;;;;;30.12;21.62;101920.81;4977247;28;1111;-20
2022/11/27 07:45:02;;;;;;;;;;;;;;;30.01;21.74;101921.22;4976434;28;1165;-21
2022/11/27 07:47:28;;;;;;;;;;;;;;;30.02;21.85;101918.31;4976944;28;1141;-20
2022/11/27 07:49:54;;;;;;;;;;;;;;;30.14;21.79;101915.22;4976748;28;1194;-21
2022/11/27 07:52:19;;;;;;;;;;;;;;;30.22;21.66;101919.78;4976842;28;2499;-20
2022/11/27 07:54:44;;;;;;;;;;;;;;;30.17;21.67;101921.16;4976580;28;1906;-20
2022/11/27 07:57:10;;;;;;;;;;;;;;;30.13;22.07;101929.81;4976657;28;1133;-21
2022/11/27 07:59:35;;;;;;;;;;;;;;;30.09;21.85;101920.31;4976541;28;1138;-21
2022/11/27 08:02:00;;;;;;;;;;;;;;;30.21;21.83;101931.69;4976702;28;924;-21
2022/11/27 08:04:26;;;;;;;;;;;;;;;30.32;21.86;101934.00;4976887;28;1102;-21
2022/11/27 08:06:51;;;;;;;;;;;;;;;30.32;21.75;101939.44;4976289;28;1193;-20
2022/11/27 08:09:16;;;;;;;;;;;;;;;30.34;21.80;101939.25;4977022;28;1216;-20
2022/11/27 08:11:41;;;;;;;;;;;;;;;30.38;21.89;101941.44;4974855;28;1341;-20
2022/11/27 08:14:07;;;;;;;;;;;;;;;30.39;21.80;101939.56;4975575;28;1898;-20
2022/11/27 08:16:32;;;;;;;;;;;;;;;30.30;21.88;101936.91;4976271;28;1185;-21
2022/11/27 08:18:58;;;;;;;;;;;;;;;30.39;21.84;101932.28;4976439;28;1149;-20
2022/11/27 08:21:23;;;;;;;;;;;;;;;30.37;21.75;101928.91;4976700;28;1129;-21
2022/11/27 08:23:48;;;;;;;;;;;;;;;30.45;21.78;101922.56;4976169;28;2591;-20
2022/11/27 08:26:14;;;;;;;;;;;;;;;30.46;21.89;101935.13;4979264;28;1174;-20
2022/11/27 08:28:39;;;;;;;;;;;;;;;30.50;21.82;101935.59;4979741;28;1301;-21
2022/11/27 08:31:05;;;;;;;;;;;;;;;30.50;21.71;101928.31;4979934;28;1194;-20
2022/11/27 08:33:30;;;;;;;;;;;;;;;30.51;21.89;101931.88;4980036;28;1939;-20
2022/11/27 08:35:55;;;;;;;;;;;;;;;30.51;21.71;101934.59;4980447;28;1212;-20
2022/11/27 08:38:21;;;;;;;;;;;;;;;30.58;21.76;101926.59;4979043;28;1210;-21
2022/11/27 08:41:04;;;;;;;;;;;;;;;30.62;21.64;101928.78;4979831;28;1272;-20
2022/11/27 08:43:30;;;;;;;;;;;;;;;30.79;21.53;101931.38;4979722;28;1265;-21
2022/11/27 08:45:55;;;;;;;;;;;;;;;30.88;21.44;101926.78;4979873;28;1297;-20
2022/11/27 08:48:20;;;;;;;;;;;;;;;30.97;21.44;101925.69;4979732;28;1233;-20
2022/11/27 08:50:46;;;;;;;;;;;;;;;30.93;21.43;101918.91;4979642;28;1312;-21
2022/11/27 08:53:11;;;;;;;;;;;;;;;31.02;21.54;101908.84;4979721;28;1903;-20
2022/11/27 08:55:37;;;;;;;;;;;;;;;30.92;21.40;101909.06;4979689;28;1316;-20
2022/11/27 08:58:02;;;;;;;;;;;;;;;30.67;21.50;101899.22;4979321;28;1206;-21
2022/11/27 09:00:28;;;;;;;;;;;;;;;30.45;22.01;101905.44;4979595;28;1265;-20
2022/11/27 09:02:53;;;;;;;;;;;;;;;30.97;21.44;101903.94;4979385;28;1202;-20
2022/11/27 09:05:19;;;;;;;;;;;;;;;30.60;21.77;101891.94;4979332;28;1236;-21
2022/11/27 09:07:44;;;;;;;;;;;;;;;30.46;22.15;101891.69;4978894;28;1206;-20
2022/11/27 09:10:09;;;;;;;;;;;;;;;30.39;22.21;101890.72;4979749;28;1170;-20
2022/11/27 09:12:34;;;;;;;;;;;;;;;30.56;22.09;101880.63;4979203;28;1292;-21
2022/11/27 09:15:00;;;;;;;;;;;;;;;30.49;22.06;101885.91;4978529;28;1887;-20
2022/11/27 09:17:25;;;;;;;;;;;;;;;30.57;21.91;101879.56;4979343;28;1324;-20
2022/11/27 09:19:51;;;;;;;;;;;;;;;30.96;21.64;101880.53;4978739;28;1273;-20
2022/11/27 09:22:16;;;;;;;;;;;;;;;30.45;22.29;101872.88;4978950;28;2235;-20
2022/11/27 09:24:41;;;;;;;;;;;;;;;30.43;22.39;101882.03;4978648;28;1229;-20
2022/11/27 09:27:07;;;;;;;;;;;;;;;30.59;22.04;101882.09;4978627;28;1228;-20
2022/11/27 09:29:35;;;;;;;;;;;;;;;30.70;21.89;101881.69;4978581;28;1301;-20
2022/11/27 09:32:00;;;;;;;;;;;;;;;30.91;21.66;101874.78;4979158;28;1202;-21
2022/11/27 09:34:25;;;;;;;;;;;;;;;31.03;21.35;101869.78;4978641;28;1980;-20
2022/11/27 09:36:51;;;;;;;;;;;;;;;31.11;21.68;101875.16;4978342;28;1260;-20
2022/11/27 09:39:18;;;;;;;;;;;;;;;31.07;21.52;101875.66;4978118;28;1353;-21
2022/11/27 09:41:50;;;;;;;;;;;;;;;30.93;21.59;101859.13;4978706;28;1201;-20
2022/11/27 09:44:19;;;;;;;;;;;;;;;30.69;22.07;101861.00;4961871;28;1159;-20
2022/11/27 09:46:44;;;;;;;;;;;;;;;31.64;21.17;101862.59;4978911;28;1245;-20
2022/11/27 09:49:13;;;;;;;;;;;;;;;31.09;21.23;101851.88;4978091;28;1161;-21
2022/11/27 09:51:52;;;;;;;;;;;;;;;30.31;22.20;101843.56;4977958;28;2373;-20
2022/11/27 09:54:19;;;;;;;;;;;;;;;30.96;21.63;101842.50;4960187;28;1898;-21
2022/11/27 09:56:46;;;;;;;;;;;;;;;30.53;21.98;101841.06;4978714;28;1168;-21
2022/11/27 09:59:14;;;;;;;;;;;;;;;30.61;22.20;101844.75;4978719;28;1071;-21
2022/11/27 10:01:39;;;;;;;;;;;;;;;30.85;21.53;101829.31;4961774;28;1170;-21
2022/11/27 10:04:05;;;;;;;;;;;;;;;31.22;21.20;101838.50;4977982;28;936;-21
2022/11/27 10:06:43;;;;;;;;;;;;;;;31.58;20.70;101833.41;4962110;28;1113;-21
2022/11/27 10:09:08;;;;;;;;;;;;;;;31.54;20.79;101841.09;4978625;28;1094;-21
2022/11/27 10:11:37;;;;;;;;;;;;;;;31.44;20.89;101835.94;4978436;28;1158;-21
2022/11/27 10:14:24;;;;;;;;;;;;;;;31.03;21.43;101831.75;4977927;28;1906;-21
2022/11/27 10:17:02;;;;;;;;;;;;;;;31.39;21.15;101838.38;4961670;28;1194;-21
2022/11/27 10:19:28;;;;;;;;;;;;;;;31.57;21.04;101834.44;4960629;28;1250;-21
2022/11/27 10:22:11;;;;;;;;;;;;;;;31.59;21.17;101829.66;4977334;28;1792;-21
2022/11/27 10:24:39;;;;;;;;;;;;;;;31.63;20.85;101826.38;4960411;28;1270;-21
2022/11/27 10:27:09;;;;;;;;;;;;;;;31.62;20.84;101824.69;4977366;28;1331;-21
2022/11/27 10:29:41;;;;;;;;;;;;;;;30.76;21.79;101815.78;4978197;28;1277;-21
2022/11/27 10:32:12;;;;;;;;;;;;;;;31.35;21.40;101813.41;4960378;28;1234;-21
2022/11/27 10:34:37;;;;;;;;;;;;;;;31.39;21.46;101811.19;4960253;28;1902;-21
2022/11/27 10:37:05;;;;;;;;;;;;;;;31.60;20.92;101810.44;4977807;28;1221;-21
2022/11/27 10:39:39;;;;;;;;;;;;;;;31.77;20.76;101810.22;4977503;28;1226;-21
2022/11/27 10:42:12;;;;;;;;;;;;;;;31.79;20.68;101804.59;4977124;28;1146;-21
2022/11/27 10:44:41;;;;;;;;;;;;;;;31.85;20.69;101810.13;4977321;28;1190;-21
2022/11/27 10:47:07;;;;;;;;;;;;;;;30.96;21.72;101803.59;4959590;28;1173;-21
2022/11/27 10:49:33;;;;;;;;;;;;;;;31.58;21.12;101803.50;4978238;28;1255;-21
2022/11/27 10:51:58;;;;;;;;;;;;;;;31.56;21.01;101819.16;4959543;28;2594;-21
2022/11/27 10:54:28;;;;;;;;;;;;;;;31.55;20.91;101801.16;4977264;28;1934;-21
2022/11/27 10:57:13;;;;;;;;;;;;;;;31.53;21.03;101807.63;4977437;28;1106;-21
2022/11/27 10:59:42;;;;;;;;;;;;;;;31.61;20.88;101803.13;4960439;28;1114;-21
2022/11/27 11:02:24;;;;;;;;;;;;;;;31.54;21.10;101803.03;4960000;28;1209;-21
2022/11/27 11:04:49;;;;;;;;;;;;;;;30.86;21.64;101809.28;4960333;28;1103;-21
2022/11/27 11:07:25;;;;;;;;;;;;;;;31.37;21.18;101810.50;4977359;28;1463;-21
2022/11/27 11:09:50;;;;;;;;;;;;;;;31.42;21.23;101807.25;4978042;28;1090;-21
2022/11/27 11:12:18;;;;;;;;;;;;;;;31.60;21.17;101802.28;4960216;28;1146;-22
2022/11/27 11:14:53;;;;;;;;;;;;;;;31.57;21.00;101790.91;4976551;28;1890;-21
2022/11/27 11:17:29;;;;;;;;;;;;;;;31.68;20.78;101787.72;4977430;28;1130;-21
2022/11/27 11:19:55;;;;;;;;;;;;;;;31.46;21.22;101794.97;4977501;28;1185;-21
2022/11/27 11:22:20;;;;;;;;;;;;;;;30.74;22.17;101777.09;4976358;28;1866;-21
2022/11/27 11:24:46;;;;;;;;;;;;;;;31.50;21.28;101788.09;4976917;28;1091;-21
2022/11/27 11:27:11;;;;;;;;;;;;;;;31.57;20.97;101783.63;4960037;28;948;-20
2022/11/27 11:29:57;;;;;;;;;;;;;;;30.20;22.56;101781.56;4977362;28;1169;-21
2022/11/27 11:32:23;;;;;;;;;;;;;;;30.76;22.10;101785.06;4959925;28;1134;-20
2022/11/27 11:35:02;;;;;;;;;;;;;;;31.24;21.67;101784.81;4959490;28;1970;-21
2022/11/27 11:37:32;;;;;;;;;;;;;;;31.46;21.38;101775.94;4957744;28;1227;-21
2022/11/27 11:40:02;;;;;;;;;;;;;;;31.59;21.20;101786.16;4976799;28;1086;-21
2022/11/27 11:42:28;;;;;;;;;;;;;;;31.61;20.88;101774.06;4977151;28;1149;-21
2022/11/27 11:45:04;;;;;;;;;;;;;;;31.55;21.03;101763.91;4976833;28;1185;-21
2022/11/27 11:47:29;;;;;;;;;;;;;;;31.57;21.28;101772.75;4977053;28;1154;-21
2022/11/27 11:49:55;;;;;;;;;;;;;;;30.58;22.31;101775.34;4960010;28;1130;-20
2022/11/27 11:52:39;;;;;;;;;;;;;;;31.40;21.39;101769.38;4976747;28;2247;-20
2022/11/27 11:55:16;;;;;;;;;;;;;;;31.10;21.75;101767.44;4976625;28;1902;-20
2022/11/27 11:57:54;;;;;;;;;;;;;;;30.21;22.85;101760.72;4976893;28;1162;-20
2022/11/27 12:00:21;;;;;;;;;;;;;;;30.83;22.45;101766.19;4963577;28;1075;-20
2022/11/27 12:02:59;;;;;;;;;;;;;;;31.01;22.04;101763.97;4976004;28;1093;-20
2022/11/27 12:05:39;;;;;;;;;;;;;;;31.26;21.67;101765.59;4975695;28;1193;-20
2022/11/27 12:08:23;;;;;;;;;;;;;;;31.39;21.57;101762.25;4976866;28;1142;-21
2022/11/27 12:11:02;;;;;;;;;;;;;;;31.60;21.18;101764.19;4976762;28;1181;-20
2022/11/27 12:13:28;;;;;;;;;;;;;;;31.67;21.13;101760.72;4958769;28;1993;-20
2022/11/27 12:15:53;;;;;;;;;;;;;;;31.08;21.71;101749.66;4975671;28;1205;-21
2022/11/27 12:18:21;;;;;;;;;;;;;;;30.70;22.20;101759.47;4976514;28;1547;-21
2022/11/27 12:20:49;;;;;;;;;;;;;;;31.26;21.86;101760.97;4976559;28;1165;-20
2022/11/27 12:23:24;;;;;;;;;;;;;;;31.39;21.74;101749.50;4975799;28;2588;-20
2022/11/27 12:25:56;;;;;;;;;;;;;;;31.39;21.57;101752.22;4959175;28;1142;-20
2022/11/27 12:28:50;;;;;;;;;;;;;;;31.53;21.65;101755.13;4976669;28;901;-21
2022/11/27 12:31:24;;;;;;;;;;;;;;;31.64;21.64;101756.50;4922981;29;1111;-20
2022/11/27 12:33:50;;;;;;;;;;;;;;;31.70;21.39;101757.63;4968007;28;1910;-20
2022/11/27 12:36:27;;;;;;;;;;;;;;;30.64;22.59;101757.50;4976495;28;1111;-20
2022/11/27 12:39:12;;;;;;;;;;;;;;;31.43;21.90;101751.84;4976705;28;1078;-21
2022/11/27 12:41:37;;;;;;;;;;;;;;;31.55;21.76;101753.03;4975999;28;1086;-21
2022/11/27 12:44:02;;;;;;;;;;;;;;;31.59;21.69;101746.22;4976015;28;1122;-20
2022/11/27 12:46:46;;;;;;;;;;;;;;;31.55;21.82;101749.50;4958935;28;1123;-20
2022/11/27 12:49:23;;;;;;;;;;;;;;;31.55;21.85;101744.88;4976531;28;1098;-21